createdAt,value
2019-05-17T00:00:18.851Z,100986.14
2019-05-17T00:02:47.464Z,100988.09
2019-05-17T00:05:17.772Z,100984.06
2019-05-17T00:07:47.478Z,100982.67
2019-05-17T00:10:17.262Z,100980.63
2019-05-17T00:12:47.146Z,100975.08
2019-05-17T00:15:17.178Z,100970.12
2019-05-17T00:17:46.967Z,100972.50
2019-05-17T00:20:20.784Z,100965.97
2019-05-17T00:22:49.329Z,100973.86
2019-05-17T00:25:18.089Z,100961.66
2019-05-17T00:27:47.437Z,100963.97
2019-05-17T00:30:17.507Z,100958.55
2019-05-17T00:32:47.600Z,100954.96
2019-05-17T00:35:17.840Z,100954.62
2019-05-17T00:37:46.681Z,100950.05
2019-05-17T00:40:16.675Z,100950.50
2019-05-17T00:42:46.587Z,100950.25
2019-05-17T00:45:17.546Z,100956.39
2019-05-17T00:47:46.858Z,100950.42
2019-05-17T00:50:17.031Z,100954.62
2019-05-17T00:52:47.482Z,100948.55
2019-05-17T00:55:17.514Z,100946.35
2019-05-17T00:57:47.464Z,100946.16
2019-05-17T01:00:17.205Z,100945.05
2019-05-17T01:02:46.794Z,100948.69
2019-05-17T01:05:17.099Z,100944.83
2019-05-17T01:07:47.057Z,100938.00
2019-05-17T01:10:16.950Z,100937.16
2019-05-17T01:12:45.473Z,100933.34
2019-05-17T01:15:16.741Z,100932.83
2019-05-17T01:17:47.334Z,100929.02
2019-05-17T01:20:17.335Z,100923.97
2019-05-17T01:22:47.509Z,100925.37
2019-05-17T01:25:17.083Z,100926.30
2019-05-17T01:27:47.470Z,100927.20
2019-05-17T01:30:18.324Z,100922.92
2019-05-17T01:32:46.995Z,100923.44
2019-05-17T01:35:16.709Z,100919.28
2019-05-17T01:37:47.427Z,100917.38
2019-05-17T01:40:17.557Z,100914.28
2019-05-17T01:42:46.798Z,100918.73
2019-05-17T01:45:16.616Z,100907.88
2019-05-17T01:47:47.436Z,100909.19
2019-05-17T01:50:17.470Z,100909.11
2019-05-17T01:52:46.495Z,100901.05
2019-05-17T01:55:17.380Z,100892.47
2019-05-17T01:57:47.648Z,100887.94
2019-05-17T02:00:20.175Z,100883.45
2019-05-17T02:02:50.518Z,100889.55
2019-05-17T02:05:19.804Z,100888.19
2019-05-17T02:07:48.589Z,100891.41
2019-05-17T02:10:17.756Z,100889.62
2019-05-17T02:12:49.059Z,100892.52
2019-05-17T02:15:17.785Z,100891.16
2019-05-17T02:17:46.972Z,100885.73
2019-05-17T02:20:17.540Z,100888.69
2019-05-17T02:22:47.345Z,100887.94
2019-05-17T02:25:16.874Z,100886.03
2019-05-17T02:27:45.767Z,100882.17
2019-05-17T02:30:15.619Z,100878.40
2019-05-17T02:32:45.694Z,100882.31
2019-05-17T02:35:15.489Z,100879.20
2019-05-17T02:37:44.271Z,100880.91
2019-05-17T02:40:14.806Z,100878.19
2019-05-17T02:42:44.171Z,100877.55
2019-05-17T02:45:13.707Z,100888.40
2019-05-17T02:47:43.794Z,100884.76
2019-05-17T02:50:13.342Z,100884.13
2019-05-17T02:52:43.621Z,100890.18
2019-05-17T02:55:13.594Z,100889.88
2019-05-17T02:57:43.542Z,100891.61
2019-05-17T03:00:13.872Z,100883.27
2019-05-17T03:02:43.902Z,100892.47
2019-05-17T03:05:13.283Z,100892.20
2019-05-17T03:07:43.788Z,100893.12
2019-05-17T03:10:23.039Z,100880.92
2019-05-17T03:12:44.385Z,100890.55
2019-05-17T03:15:14.057Z,100884.48
2019-05-17T03:17:43.711Z,100888.34
2019-05-17T03:20:14.055Z,100887.75
2019-05-17T03:22:43.971Z,100887.20
2019-05-17T03:25:14.244Z,100892.55
2019-05-17T03:27:43.608Z,100896.13
2019-05-17T03:30:17.091Z,100886.14
2019-05-17T03:32:47.509Z,100891.91
2019-05-17T03:35:17.507Z,100886.78
2019-05-17T03:37:45.502Z,100884.46
2019-05-17T03:40:30.676Z,100885.55
2019-05-17T03:42:48.631Z,100882.13
2019-05-17T03:45:17.403Z,100880.27
2019-05-17T03:47:46.108Z,100872.13
2019-05-17T03:50:14.896Z,100868.56
2019-05-17T03:52:44.748Z,100864.78
2019-05-17T03:55:13.908Z,100878.59
2019-05-17T03:57:44.119Z,100878.42
2019-05-17T04:00:14.128Z,100877.16
2019-05-17T04:02:44.578Z,100875.80
2019-05-17T04:05:13.572Z,100879.70
2019-05-17T04:07:43.599Z,100878.34
2019-05-17T04:10:15.183Z,100887.36
2019-05-17T04:12:44.520Z,100883.50
2019-05-17T04:15:14.968Z,100882.86
2019-05-17T04:17:44.330Z,100883.58
2019-05-17T04:20:14.015Z,100885.58
2019-05-17T04:22:44.318Z,100886.16
2019-05-17T04:25:14.342Z,100886.50
2019-05-17T04:27:43.828Z,100889.66
2019-05-17T04:30:13.072Z,100891.22
2019-05-17T04:32:44.325Z,100891.80
2019-05-17T04:35:13.489Z,100891.09
2019-05-17T04:37:44.450Z,100897.36
2019-05-17T04:40:14.398Z,100896.52
2019-05-17T04:42:44.236Z,100901.44
2019-05-17T04:45:13.758Z,100900.95
2019-05-17T04:47:44.311Z,100897.47
2019-05-17T04:50:14.060Z,100902.13
2019-05-17T04:52:43.615Z,100888.31
2019-05-17T04:55:13.844Z,100890.11
2019-05-17T04:57:43.707Z,100894.25
2019-05-17T05:00:13.829Z,100887.41
2019-05-17T05:02:43.930Z,100885.75
2019-05-17T05:05:15.329Z,100887.52
2019-05-17T05:07:44.134Z,100892.77
2019-05-17T05:10:13.999Z,100886.12
2019-05-17T05:12:44.138Z,100890.33
2019-05-17T05:15:13.933Z,100890.47
2019-05-17T05:17:43.104Z,100889.41
2019-05-17T05:20:13.312Z,100891.48
2019-05-17T05:22:43.119Z,100887.92
2019-05-17T05:25:13.168Z,100884.50
2019-05-17T05:27:42.627Z,100885.92
2019-05-17T05:30:12.740Z,100878.89
2019-05-17T05:32:42.777Z,100884.63
2019-05-17T05:35:12.728Z,100886.31
2019-05-17T05:37:42.236Z,100890.31
2019-05-17T05:40:12.671Z,100896.33
2019-05-17T05:42:42.615Z,100895.17
2019-05-17T05:45:12.305Z,100890.19
2019-05-17T05:47:42.114Z,100892.70
2019-05-17T05:50:12.683Z,100892.77
2019-05-17T05:52:42.583Z,100892.09
2019-05-17T05:55:12.468Z,100894.53
2019-05-17T05:57:42.161Z,100894.23
2019-05-17T06:00:13.125Z,100895.33
2019-05-17T06:02:42.211Z,100885.38
2019-05-17T06:05:14.841Z,100890.74
2019-05-17T06:07:41.926Z,100885.52
2019-05-17T06:10:12.975Z,100880.45
2019-05-17T06:12:43.514Z,100882.73
2019-05-17T06:15:12.968Z,100873.92
2019-05-17T06:17:42.893Z,100869.22
2019-05-17T06:20:12.647Z,100871.84
2019-05-17T06:22:43.063Z,100856.41
2019-05-17T06:25:15.212Z,100867.14
2019-05-17T06:27:43.004Z,100862.52
2019-05-17T06:30:12.830Z,100860.78
2019-05-17T06:32:43.631Z,100860.41
2019-05-17T06:35:13.646Z,100864.19
2019-05-17T06:37:42.718Z,100868.28
2019-05-17T06:40:13.007Z,100856.61
2019-05-17T06:42:45.288Z,100864.40
2019-05-17T06:45:14.118Z,100858.77
2019-05-17T06:47:43.011Z,100859.84
2019-05-17T06:50:14.340Z,100861.11
2019-05-17T06:52:43.968Z,100862.45
2019-05-17T06:55:13.257Z,100857.30
2019-05-17T06:57:43.255Z,100857.67
2019-05-17T07:00:20.805Z,100861.20
2019-05-17T07:02:45.187Z,100854.22
2019-05-17T07:05:15.546Z,100851.13
2019-05-17T07:07:44.234Z,100859.92
2019-05-17T07:10:13.639Z,100856.21
2019-05-17T07:12:55.095Z,100860.78
2019-05-17T07:15:13.591Z,100859.88
2019-05-17T07:17:42.272Z,100860.01
2019-05-17T07:20:11.374Z,100863.25
2019-05-17T07:22:41.007Z,100868.30
2019-05-17T07:25:10.973Z,100866.11
2019-05-17T07:27:45.453Z,100867.78
2019-05-17T07:30:11.081Z,100864.79
2019-05-17T07:32:40.563Z,100865.08
2019-05-17T07:35:10.746Z,100851.12
2019-05-17T07:37:40.159Z,100847.62
2019-05-17T07:40:10.836Z,100845.54
2019-05-17T07:42:42.062Z,100847.55
2019-05-17T07:45:11.193Z,100843.73
2019-05-17T07:47:40.697Z,100843.08
2019-05-17T07:50:11.425Z,100844.56
2019-05-17T07:52:40.410Z,100851.43
2019-05-17T07:55:10.784Z,100847.20
2019-05-17T07:57:40.976Z,100846.02
2019-05-17T08:00:10.943Z,100844.63
2019-05-17T08:02:40.367Z,100852.06
2019-05-17T08:05:10.620Z,100854.84
2019-05-17T08:07:40.539Z,100844.82
2019-05-17T08:10:11.274Z,100845.95
2019-05-17T08:12:40.927Z,100846.69
2019-05-17T08:15:10.954Z,100844.63
2019-05-17T08:17:40.081Z,100847.34
2019-05-17T08:20:10.538Z,100846.26
2019-05-17T08:22:40.110Z,100848.75
2019-05-17T08:25:10.896Z,100855.80
2019-05-17T08:27:40.605Z,100858.84
2019-05-17T08:30:10.844Z,100859.86
2019-05-17T08:32:40.295Z,100863.56
2019-05-17T08:35:11.176Z,100861.91
2019-05-17T08:37:42.362Z,100854.88
2019-05-17T08:40:14.874Z,100858.36
2019-05-17T08:42:41.783Z,100856.02
2019-05-17T08:45:10.967Z,100856.77
2019-05-17T08:47:39.995Z,100848.85
2019-05-17T08:50:11.211Z,100847.61
2019-05-17T08:52:40.318Z,100844.95
2019-05-17T08:55:09.962Z,100846.58
2019-05-17T08:57:40.137Z,100847.31
2019-05-17T09:00:10.567Z,100851.27
2019-05-17T09:02:40.830Z,100848.23
2019-05-17T09:05:10.295Z,100841.08
2019-05-17T09:07:40.170Z,100840.36
2019-05-17T09:10:10.122Z,100837.26
2019-05-17T09:12:41.040Z,100835.05
2019-05-17T09:15:10.248Z,100826.39
2019-05-17T09:17:39.592Z,100821.67
2019-05-17T09:20:10.883Z,100817.77
2019-05-17T09:22:39.971Z,100820.68
2019-05-17T09:25:13.506Z,100816.28
2019-05-17T09:27:39.928Z,100820.89
2019-05-17T09:30:09.658Z,100814.77
2019-05-17T09:32:40.531Z,100817.66
2019-05-17T09:35:10.338Z,100819.81
2019-05-17T09:37:41.400Z,100815.30
2019-05-17T09:40:10.839Z,100815.81
2019-05-17T09:42:41.124Z,100810.94
2019-05-17T09:45:10.837Z,100815.75
2019-05-17T09:47:39.966Z,100810.34
2019-05-17T09:50:09.884Z,100811.87
2019-05-17T09:52:40.512Z,100806.28
2019-05-17T09:55:10.104Z,100808.95
2019-05-17T09:57:40.912Z,100808.58
2019-05-17T10:00:10.737Z,100806.31
2019-05-17T10:02:40.419Z,100795.30
2019-05-17T10:05:10.608Z,100798.50
2019-05-17T10:07:40.507Z,100788.03
2019-05-17T10:10:10.402Z,100780.88
2019-05-17T10:12:40.282Z,100783.06
2019-05-17T10:15:10.198Z,100779.21
2019-05-17T10:17:38.958Z,100776.17
2019-05-17T10:20:10.670Z,100785.95
2019-05-17T10:22:40.242Z,100781.64
2019-05-17T10:25:11.029Z,100777.30
2019-05-17T10:27:40.765Z,100771.78
2019-05-17T10:30:10.675Z,100756.47
2019-05-17T10:32:40.864Z,100762.23
2019-05-17T10:35:09.999Z,100765.37
2019-05-17T10:37:40.642Z,100759.58
2019-05-17T10:40:10.939Z,100762.30
2019-05-17T10:42:40.057Z,100761.49
2019-05-17T10:45:10.906Z,100756.06
2019-05-17T10:47:40.113Z,100756.79
2019-05-17T10:50:10.916Z,100753.94
2019-05-17T10:52:40.881Z,100759.34
2019-05-17T10:55:10.803Z,100747.61
2019-05-17T10:57:39.616Z,100756.88
2019-05-17T11:00:10.088Z,100755.48
2019-05-17T11:02:39.078Z,100762.55
2019-05-17T11:05:10.372Z,100753.51
2019-05-17T11:07:38.718Z,100755.87
2019-05-17T11:10:11.148Z,100756.30
2019-05-17T11:12:38.615Z,100769.20
2019-05-17T11:15:11.398Z,100759.91
2019-05-17T11:17:38.368Z,100748.48
2019-05-17T11:20:09.078Z,100751.30
2019-05-17T11:22:37.878Z,100751.91
2019-05-17T11:25:07.886Z,100743.00
2019-05-17T11:27:36.650Z,100742.45
2019-05-17T11:30:07.183Z,100735.93
2019-05-17T11:32:35.936Z,100740.78
2019-05-17T11:35:05.578Z,100737.56
2019-05-17T11:37:36.314Z,100739.20
2019-05-17T11:40:08.275Z,100733.53
2019-05-17T11:42:37.122Z,100734.75
2019-05-17T11:45:06.229Z,100724.03
2019-05-17T11:47:34.894Z,100718.30
2019-05-17T11:50:04.641Z,100717.05
2019-05-17T11:52:33.370Z,100717.25
2019-05-17T11:55:02.193Z,100725.51
2019-05-17T11:57:30.888Z,100717.17
2019-05-17T11:59:59.550Z,100719.23
2019-05-17T12:02:28.238Z,100717.30
2019-05-17T12:04:56.989Z,100715.95
2019-05-17T12:07:25.637Z,100707.08
2019-05-17T12:09:54.325Z,100704.30
2019-05-17T12:12:23.103Z,100709.08
2019-05-17T12:14:51.763Z,100699.41
2019-05-17T12:17:20.535Z,100711.73
2019-05-17T12:19:49.306Z,100701.76
2019-05-17T12:22:17.989Z,100700.08
2019-05-17T12:24:46.743Z,100695.61
2019-05-17T12:27:15.451Z,100689.75
2019-05-17T12:29:44.194Z,100683.94
2019-05-17T12:32:16.905Z,100689.14
2019-05-17T12:34:43.476Z,100688.58
2019-05-17T12:37:12.148Z,100683.93
2019-05-17T12:39:40.825Z,100686.84
2019-05-17T12:42:09.605Z,100682.91
2019-05-17T12:44:38.344Z,100686.70
2019-05-17T12:47:07.041Z,100678.24
2019-05-17T12:49:35.698Z,100677.80
2019-05-17T12:52:04.464Z,100684.78
2019-05-17T12:54:33.193Z,100679.27
2019-05-17T12:57:04.561Z,100673.34
2019-05-17T12:59:32.346Z,100678.48
2019-05-17T13:02:01.049Z,100680.16
2019-05-17T13:04:29.790Z,100670.50
2019-05-17T13:06:58.527Z,100678.26
2019-05-17T13:09:27.238Z,100671.81
2019-05-17T13:11:55.901Z,100677.51
2019-05-17T13:14:24.652Z,100680.61
2019-05-17T13:16:53.422Z,100677.84
2019-05-17T13:19:25.120Z,100672.11
2019-05-17T13:21:52.512Z,100671.59
2019-05-17T13:24:21.237Z,100660.52
2019-05-17T13:26:49.903Z,100666.45
2019-05-17T13:29:18.674Z,100659.05
2019-05-17T13:31:47.482Z,100664.35
2019-05-17T13:34:16.234Z,100661.02
2019-05-17T13:36:44.895Z,100655.50
2019-05-17T13:39:13.614Z,100654.64
2019-05-17T13:41:42.473Z,100648.00
2019-05-17T13:44:11.147Z,100651.56
2019-05-17T13:46:39.966Z,100647.44
2019-05-17T13:49:08.700Z,100651.67
2019-05-17T13:51:37.463Z,100650.93
2019-05-17T13:54:06.198Z,100652.16
2019-05-17T13:56:35.028Z,100651.94
2019-05-17T13:59:05.164Z,100653.19
2019-05-17T14:01:34.066Z,100648.23
2019-05-17T14:04:02.800Z,100653.13
2019-05-17T14:06:31.542Z,100646.27
2019-05-17T14:09:00.293Z,100641.63
2019-05-17T14:11:29.004Z,100639.32
2019-05-17T14:13:57.872Z,100641.28
2019-05-17T14:16:26.666Z,100639.84
2019-05-17T14:18:55.408Z,100638.20
2019-05-17T14:21:24.068Z,100637.86
2019-05-17T14:23:52.791Z,100638.67
2019-05-17T14:26:21.468Z,100642.44
2019-05-17T14:28:50.129Z,100640.42
2019-05-17T14:31:19.023Z,100632.25
2019-05-17T14:33:47.689Z,100629.50
2019-05-17T14:36:16.347Z,100632.31
2019-05-17T14:38:45.139Z,100628.58
2019-05-17T14:41:14.179Z,100632.52
2019-05-17T14:43:42.953Z,100639.05
2019-05-17T14:46:13.710Z,100634.46
2019-05-17T14:48:42.440Z,100640.22
2019-05-17T14:51:11.168Z,100634.77
2019-05-17T14:53:39.839Z,100633.59
2019-05-17T14:56:08.573Z,100630.03
2019-05-17T14:58:37.303Z,100637.45
2019-05-17T15:01:06.012Z,100618.70
2019-05-17T15:03:34.775Z,100620.97
2019-05-17T15:06:03.473Z,100620.08
2019-05-17T15:08:32.173Z,100611.49
2019-05-17T15:11:00.864Z,100615.20
2019-05-17T15:13:29.537Z,100616.63
2019-05-17T15:15:58.243Z,100614.98
2019-05-17T15:18:27.004Z,100615.75
2019-05-17T15:20:55.695Z,100614.91
2019-05-17T15:23:24.481Z,100612.03
2019-05-17T15:25:53.157Z,100610.55
2019-05-17T15:28:21.907Z,100603.78
2019-05-17T15:30:50.601Z,100601.85
2019-05-17T15:33:19.346Z,100606.53
2019-05-17T15:35:48.086Z,100598.38
2019-05-17T15:38:16.784Z,100600.91
2019-05-17T15:40:45.441Z,100596.64
2019-05-17T15:43:14.133Z,100602.39
2019-05-17T15:45:42.972Z,100597.73
2019-05-17T15:48:11.799Z,100593.48
2019-05-17T15:50:40.630Z,100600.27
2019-05-17T15:53:09.381Z,100592.46
2019-05-17T15:55:38.152Z,100590.80
2019-05-17T15:58:06.886Z,100593.63
2019-05-17T16:00:35.654Z,100592.90
2019-05-17T16:03:04.329Z,100590.38
2019-05-17T16:05:33.020Z,100591.35
2019-05-17T16:08:01.722Z,100582.59
2019-05-17T16:10:30.461Z,100581.69
2019-05-17T16:13:02.799Z,100575.22
2019-05-17T16:15:29.764Z,100585.02
2019-05-17T16:17:58.465Z,100576.60
2019-05-17T16:20:27.225Z,100576.60
2019-05-17T16:22:55.969Z,100574.05
2019-05-17T16:25:24.794Z,100570.46
2019-05-17T16:27:53.527Z,100575.16
2019-05-17T16:30:22.341Z,100566.34
2019-05-17T16:32:51.018Z,100567.72
2019-05-17T16:35:19.831Z,100556.61
2019-05-17T16:37:48.554Z,100556.61
2019-05-17T16:40:17.347Z,100560.27
2019-05-17T16:42:46.082Z,100560.27
2019-05-17T16:45:17.883Z,100559.08
2019-05-17T16:47:46.635Z,100557.41
2019-05-17T16:50:17.069Z,100554.45
2019-05-17T16:52:45.732Z,100551.49
2019-05-17T16:55:15.162Z,100552.47
2019-05-17T16:57:43.925Z,100552.47
2019-05-17T17:00:30.320Z,100551.11
2019-05-17T17:03:00.540Z,100553.00
2019-05-17T17:05:29.344Z,100543.41
2019-05-17T17:07:58.099Z,100543.41
2019-05-17T17:10:26.817Z,100544.73
2019-05-17T17:12:55.497Z,100541.98
2019-05-17T17:15:24.188Z,100544.89
2019-05-17T17:17:52.972Z,100539.28
2019-05-17T17:20:21.877Z,100544.77
2019-05-17T17:22:50.557Z,100544.77
2019-05-17T17:25:19.463Z,100536.54
2019-05-17T17:27:48.165Z,100528.84
2019-05-17T17:30:17.546Z,100541.50
2019-05-17T17:32:46.275Z,100538.03
2019-05-17T17:35:16.067Z,100539.55
2019-05-17T17:37:44.821Z,100549.56
2019-05-17T17:40:15.293Z,100551.95
2019-05-17T17:42:44.046Z,100557.70
2019-05-17T17:45:17.758Z,100555.59
2019-05-17T17:47:46.559Z,100546.55
2019-05-17T17:50:15.978Z,100551.27
2019-05-17T17:52:46.948Z,100551.08
2019-05-17T17:55:15.775Z,100552.00
2019-05-17T17:57:44.477Z,100551.69
2019-05-17T18:00:14.252Z,100553.20
2019-05-17T18:02:42.917Z,100555.86
2019-05-17T18:05:12.163Z,100562.44
2019-05-17T18:07:40.838Z,100555.11
2019-05-17T18:10:10.352Z,100556.24
2019-05-17T18:12:39.008Z,100556.48
2019-05-17T18:15:09.959Z,100558.06
2019-05-17T18:17:39.621Z,100550.83
2019-05-17T18:20:08.688Z,100554.53
2019-05-17T18:22:37.429Z,100560.34
2019-05-17T18:25:06.930Z,100560.52
2019-05-17T18:27:35.665Z,100564.11
2019-05-17T18:30:06.958Z,100560.52
2019-05-17T18:32:35.667Z,100564.00
2019-05-17T18:35:05.984Z,100559.13
2019-05-17T18:37:34.752Z,100565.66
2019-05-17T18:40:03.852Z,100561.48
2019-05-17T18:42:32.545Z,100561.02
2019-05-17T18:45:01.282Z,100559.94
2019-05-17T18:47:30.017Z,100562.76
2019-05-17T18:49:58.697Z,100556.59
2019-05-17T18:52:27.443Z,100560.72
2019-05-17T18:54:56.163Z,100568.41
2019-05-17T18:57:24.903Z,100566.39
2019-05-17T18:59:53.655Z,100570.67
2019-05-17T19:02:22.372Z,100564.20
2019-05-17T19:04:51.131Z,100565.28
2019-05-17T19:07:19.901Z,100570.59
2019-05-17T19:09:48.620Z,100576.79
2019-05-17T19:12:17.293Z,100575.08
2019-05-17T19:14:46.052Z,100573.07
2019-05-17T19:17:14.802Z,100584.97
2019-05-17T19:19:43.540Z,100575.61
2019-05-17T19:22:12.289Z,100582.30
2019-05-17T19:24:41.065Z,100583.16
2019-05-17T19:27:09.843Z,100584.22
2019-05-17T19:29:38.590Z,100587.12
2019-05-17T19:32:07.298Z,100589.19
2019-05-17T19:34:36.061Z,100594.17
2019-05-17T19:37:04.793Z,100588.88
2019-05-17T19:39:33.517Z,100590.42
2019-05-17T19:42:02.216Z,100588.86
2019-05-17T19:44:30.961Z,100593.14
2019-05-17T19:46:59.741Z,100604.76
2019-05-17T19:49:28.491Z,100597.23
2019-05-17T19:51:57.266Z,100595.72
2019-05-17T19:54:25.958Z,100598.45
2019-05-17T19:56:54.854Z,100598.45
2019-05-17T19:59:23.530Z,100596.91
2019-05-17T20:01:52.252Z,100598.11
2019-05-17T20:04:21.010Z,100599.81
2019-05-17T20:06:49.692Z,100600.66
2019-05-17T20:09:18.368Z,100594.89
2019-05-17T20:11:47.073Z,100605.97
2019-05-17T20:14:15.816Z,100602.20
2019-05-17T20:16:44.523Z,100605.62
2019-05-17T20:19:13.249Z,100601.17
2019-05-17T20:21:41.973Z,100603.55
2019-05-17T20:24:13.350Z,100601.53
2019-05-17T20:26:42.042Z,100600.63
2019-05-17T20:29:11.215Z,100599.97
2019-05-17T20:31:39.960Z,100600.09
2019-05-17T20:34:08.762Z,100596.33
2019-05-17T20:36:37.420Z,100601.94
2019-05-17T20:39:06.298Z,100587.45
2019-05-17T20:41:34.965Z,100592.70
2019-05-17T20:44:03.823Z,100588.28
2019-05-17T20:46:32.638Z,100593.22
2019-05-17T20:49:01.564Z,100593.06
2019-05-17T20:51:30.339Z,100583.84
2019-05-17T20:54:05.579Z,100580.11
2019-05-17T20:56:34.386Z,100582.83
2019-05-17T20:59:03.160Z,100581.32
2019-05-17T21:01:31.983Z,100574.16
2019-05-17T21:04:00.768Z,100577.55
2019-05-17T21:06:29.437Z,100575.19
2019-05-17T21:08:58.147Z,100571.89
2019-05-17T21:11:26.851Z,100576.13
2019-05-17T21:13:55.630Z,100573.77
2019-05-17T21:16:24.442Z,100575.28
2019-05-17T21:18:53.151Z,100568.59
2019-05-17T21:21:21.828Z,100572.69
2019-05-17T21:23:50.560Z,100572.52
2019-05-17T21:26:19.260Z,100569.80
2019-05-17T21:28:47.968Z,100571.52
2019-05-17T21:31:16.713Z,100575.05
2019-05-17T21:33:45.430Z,100569.58
2019-05-17T21:36:14.176Z,100570.39
2019-05-17T21:38:42.900Z,100566.84
2019-05-17T21:41:11.578Z,100568.53
2019-05-17T21:43:40.266Z,100561.02
2019-05-17T21:46:09.072Z,100562.44
2019-05-17T21:48:37.749Z,100569.07
2019-05-17T21:51:06.473Z,100567.02
2019-05-17T21:53:35.157Z,100569.02
2019-05-17T21:56:03.831Z,100565.75
2019-05-17T21:58:32.729Z,100573.62
2019-05-17T22:01:04.492Z,100568.19
2019-05-17T22:03:33.247Z,100568.84
2019-05-17T22:06:02.044Z,100567.11
2019-05-17T22:08:30.809Z,100569.81
2019-05-17T22:10:59.496Z,100566.01
2019-05-17T22:13:28.290Z,100566.86
2019-05-17T22:15:57.033Z,100560.89
2019-05-17T22:18:25.702Z,100568.39
2019-05-17T22:20:54.395Z,100569.04
2019-05-17T22:23:23.116Z,100563.25
2019-05-17T22:25:51.797Z,100564.94
2019-05-17T22:28:20.472Z,100558.66
2019-05-17T22:30:49.186Z,100559.61
2019-05-17T22:33:17.873Z,100561.14
2019-05-17T22:35:46.608Z,100556.40
2019-05-17T22:38:15.336Z,100560.61
2019-05-17T22:40:44.115Z,100552.09
2019-05-17T22:43:12.803Z,100560.20
2019-05-17T22:45:41.822Z,100562.63
2019-05-17T22:48:10.623Z,100565.19
2019-05-17T22:50:39.402Z,100557.81
2019-05-17T22:53:08.120Z,100559.75
2019-05-17T22:55:36.805Z,100554.25
2019-05-17T22:58:05.487Z,100555.25
2019-05-17T23:00:34.553Z,100558.83
2019-05-17T23:03:03.259Z,100553.84
2019-05-17T23:05:31.945Z,100554.00
2019-05-17T23:08:00.667Z,100552.44
2019-05-17T23:10:29.375Z,100553.10
2019-05-17T23:12:58.119Z,100542.87
2019-05-17T23:15:28.479Z,100544.86
2019-05-17T23:17:57.243Z,100547.77
2019-05-17T23:20:25.903Z,100539.38
2019-05-17T23:22:54.837Z,100540.06
2019-05-17T23:25:23.609Z,100538.43
2019-05-17T23:27:52.421Z,100537.76
2019-05-17T23:30:21.257Z,100540.78
2019-05-17T23:32:50.012Z,100540.48
2019-05-17T23:35:18.806Z,100538.73
2019-05-17T23:37:47.626Z,100539.52
2019-05-17T23:40:16.499Z,100540.58
2019-05-17T23:42:45.244Z,100538.47
2019-05-17T23:45:14.056Z,100531.31
2019-05-17T23:47:42.736Z,100535.57
2019-05-17T23:50:11.855Z,100535.23
2019-05-17T23:52:40.617Z,100535.55
2019-05-17T23:55:10.281Z,100541.80
2019-05-17T23:57:39.092Z,100545.02
